createdAt,value
2023-03-31T00:02:22.855Z,91694.47
2023-03-31T00:05:08.790Z,91694.47
2023-03-31T00:07:54.761Z,91688.63
2023-03-31T00:10:40.720Z,91696.53
2023-03-31T00:13:26.604Z,91683.59
2023-03-31T00:16:12.551Z,91675.66
2023-03-31T00:18:58.663Z,91682.34
2023-03-31T00:21:44.489Z,91666.84
2023-03-31T00:24:30.282Z,91672.44
2023-03-31T00:27:16.178Z,91665.00
2023-03-31T00:30:02.216Z,91663.53
2023-03-31T00:32:48.231Z,91660.34
2023-03-31T00:35:34.090Z,91644.88
2023-03-31T00:38:20.061Z,91631.25
2023-03-31T00:41:05.951Z,91634.38
2023-03-31T00:43:51.741Z,91628.28
2023-03-31T00:46:37.639Z,91623.06
2023-03-31T00:49:23.643Z,91613.31
2023-03-31T00:52:09.778Z,91619.44
2023-03-31T00:54:55.658Z,91625.13
2023-03-31T00:57:41.483Z,91629.69
2023-03-31T01:00:27.313Z,91633.03
2023-03-31T01:03:13.252Z,91623.31
2023-03-31T01:05:59.384Z,91611.69
2023-03-31T01:08:45.326Z,91590.16
2023-03-31T01:11:31.242Z,91588.34
2023-03-31T01:14:17.170Z,91588.31
2023-03-31T01:17:03.141Z,91593.84
2023-03-31T01:19:49.254Z,91599.22
2023-03-31T01:22:35.253Z,91601.88
2023-03-31T01:25:21.150Z,91612.03
2023-03-31T01:28:06.850Z,91607.84
2023-03-31T01:30:52.866Z,91603.78
2023-03-31T01:33:38.631Z,91595.88
2023-03-31T01:36:24.426Z,91584.69
2023-03-31T01:39:10.324Z,91569.09
2023-03-31T01:41:56.202Z,91563.38
2023-03-31T01:44:42.137Z,91559.28
2023-03-31T01:47:28.014Z,91571.19
2023-03-31T01:50:13.914Z,91565.19
2023-03-31T01:52:59.885Z,91551.16
2023-03-31T01:55:45.703Z,91530.63
2023-03-31T01:58:31.653Z,91529.16
2023-03-31T02:01:17.697Z,91523.03
2023-03-31T02:04:03.702Z,91510.88
2023-03-31T02:06:49.853Z,91506.06
2023-03-31T02:09:35.763Z,91485.28
2023-03-31T02:12:21.533Z,91478.47
2023-03-31T02:15:07.574Z,91462.66
2023-03-31T02:17:53.491Z,91453.78
2023-03-31T02:20:39.574Z,91436.81
2023-03-31T02:23:25.441Z,91434.09
2023-03-31T02:26:11.346Z,91432.56
2023-03-31T02:28:57.242Z,91440.97
2023-03-31T02:31:43.203Z,91433.56
2023-03-31T02:34:29.637Z,91420.56
2023-03-31T02:37:15.824Z,91413.03
2023-03-31T02:40:01.750Z,91399.38
2023-03-31T02:42:47.580Z,91380.03
2023-03-31T02:45:33.466Z,91360.94
2023-03-31T02:48:19.314Z,91363.06
2023-03-31T02:51:05.105Z,91365.25
2023-03-31T02:53:50.978Z,91366.50
2023-03-31T02:56:36.841Z,91360.22
2023-03-31T02:59:22.792Z,91356.66
2023-03-31T03:02:08.632Z,91366.41
2023-03-31T03:04:56.558Z,91380.09
2023-03-31T03:07:42.539Z,91375.28
2023-03-31T03:10:28.336Z,91398.56
2023-03-31T03:13:14.287Z,91423.38
2023-03-31T03:16:00.227Z,91437.41
2023-03-31T03:18:45.974Z,91445.88
2023-03-31T03:21:32.059Z,91421.72
2023-03-31T03:24:17.912Z,91424.28
2023-03-31T03:27:03.893Z,91400.38
2023-03-31T03:29:50.029Z,91377.38
2023-03-31T03:32:35.894Z,91370.31
2023-03-31T03:35:21.667Z,91338.84
2023-03-31T03:38:07.428Z,91340.06
2023-03-31T03:40:53.297Z,91315.25
2023-03-31T03:43:39.156Z,91303.19
2023-03-31T03:46:25.013Z,91326.03
2023-03-31T03:49:10.810Z,91313.03
2023-03-31T03:51:56.832Z,91298.84
2023-03-31T03:54:42.726Z,91325.47
2023-03-31T03:57:28.530Z,91307.16
2023-03-31T04:00:14.460Z,91310.13
2023-03-31T04:03:00.578Z,91292.63
2023-03-31T04:05:46.883Z,91269.69
2023-03-31T04:08:32.746Z,91270.69
2023-03-31T04:11:19.285Z,91276.66
2023-03-31T04:14:05.444Z,91275.72
2023-03-31T04:16:51.372Z,91300.28
2023-03-31T04:19:37.295Z,91312.25
2023-03-31T04:22:23.055Z,91311.22
2023-03-31T04:25:08.971Z,91310.44
2023-03-31T04:27:55.036Z,91301.88
2023-03-31T04:30:41.204Z,91296.50
2023-03-31T04:33:27.073Z,91274.03
2023-03-31T04:36:12.929Z,91265.31
2023-03-31T04:38:58.786Z,91272.94
2023-03-31T04:41:46.773Z,91260.69
2023-03-31T04:44:32.686Z,91272.13
2023-03-31T04:47:18.621Z,91280.81
2023-03-31T04:50:04.411Z,91269.03
2023-03-31T04:52:50.188Z,91273.97
2023-03-31T04:55:36.125Z,91253.31
2023-03-31T04:58:22.182Z,91262.88
2023-03-31T05:01:08.195Z,91266.47
2023-03-31T05:03:54.115Z,91272.63
2023-03-31T05:06:39.968Z,91271.13
2023-03-31T05:09:25.895Z,91273.28
2023-03-31T05:12:11.698Z,91264.38
2023-03-31T05:14:57.522Z,91265.28
2023-03-31T05:17:43.461Z,91274.13
2023-03-31T05:20:29.545Z,91258.13
2023-03-31T05:23:15.273Z,91257.00
2023-03-31T05:26:01.152Z,91259.25
2023-03-31T05:28:47.326Z,91254.03
2023-03-31T05:31:33.261Z,91251.91
2023-03-31T05:34:19.080Z,91249.16
2023-03-31T05:37:04.841Z,91240.63
2023-03-31T05:39:50.780Z,91236.81
2023-03-31T05:42:36.705Z,91243.13
2023-03-31T05:45:22.642Z,91250.50
2023-03-31T05:48:10.670Z,91260.31
2023-03-31T05:50:56.496Z,91276.19
2023-03-31T05:53:42.437Z,91269.03
2023-03-31T05:56:28.374Z,91238.47
2023-03-31T05:59:16.172Z,91250.22
2023-03-31T06:02:02.027Z,91254.13
2023-03-31T06:04:47.976Z,91269.25
2023-03-31T06:07:33.862Z,91277.16
2023-03-31T06:10:19.716Z,91274.69
2023-03-31T06:13:05.652Z,91280.56
2023-03-31T06:15:51.540Z,91299.09
2023-03-31T06:18:37.459Z,91298.69
2023-03-31T06:21:23.412Z,91289.28
2023-03-31T06:24:09.357Z,91287.00
2023-03-31T06:26:55.372Z,91271.78
2023-03-31T06:29:41.295Z,91277.84
2023-03-31T06:32:27.457Z,91303.78
2023-03-31T06:35:13.486Z,91313.03
2023-03-31T06:38:00.437Z,91290.78
2023-03-31T06:40:46.318Z,91294.25
2023-03-31T06:43:32.183Z,91288.72
2023-03-31T06:46:18.105Z,91303.03
2023-03-31T06:49:03.976Z,91281.72
2023-03-31T06:51:49.656Z,91280.59
2023-03-31T06:54:35.567Z,91301.28
2023-03-31T06:57:21.685Z,91278.94
2023-03-31T07:00:07.495Z,91286.41
2023-03-31T07:02:53.561Z,91295.09
2023-03-31T07:05:39.768Z,91302.94
2023-03-31T07:08:25.705Z,91313.56
2023-03-31T07:11:11.749Z,91303.03
2023-03-31T07:13:57.905Z,91308.91
2023-03-31T07:16:43.930Z,91311.75
2023-03-31T07:19:29.916Z,91303.75
2023-03-31T07:22:15.908Z,91307.59
2023-03-31T07:25:01.831Z,91313.47
2023-03-31T07:27:47.694Z,91295.59
2023-03-31T07:30:33.554Z,91285.34
2023-03-31T07:33:19.452Z,91279.19
2023-03-31T07:36:12.639Z,91292.00
2023-03-31T07:39:00.341Z,91280.16
2023-03-31T07:41:46.304Z,91278.19
2023-03-31T07:44:32.396Z,91272.50
2023-03-31T07:47:18.144Z,91247.72
2023-03-31T07:50:04.174Z,91263.66
2023-03-31T07:52:50.204Z,91249.41
2023-03-31T07:55:36.024Z,91248.13
2023-03-31T07:58:22.039Z,91252.31
2023-03-31T08:01:08.497Z,91262.28
2023-03-31T08:03:54.830Z,91243.09
2023-03-31T08:06:40.824Z,91271.16
2023-03-31T08:09:26.653Z,91275.13
2023-03-31T08:12:12.724Z,91269.94
2023-03-31T08:14:58.675Z,91286.47
2023-03-31T08:17:44.570Z,91280.72
2023-03-31T08:20:30.533Z,91276.09
2023-03-31T08:23:16.432Z,91275.25
2023-03-31T08:26:02.372Z,91284.47
2023-03-31T08:28:48.246Z,91290.69
2023-03-31T08:31:34.046Z,91306.25
2023-03-31T08:34:20.042Z,91310.00
2023-03-31T08:37:06.190Z,91291.91
2023-03-31T08:39:52.077Z,91278.53
2023-03-31T08:42:38.184Z,91289.53
2023-03-31T08:45:24.145Z,91280.78
2023-03-31T08:48:10.057Z,91283.47
2023-03-31T08:50:56.182Z,91278.00
2023-03-31T08:53:42.078Z,91281.59
2023-03-31T08:56:27.981Z,91280.50
2023-03-31T08:59:13.974Z,91279.28
2023-03-31T09:02:00.186Z,91251.78
2023-03-31T09:04:46.129Z,91277.13
2023-03-31T09:07:34.329Z,91279.25
2023-03-31T09:10:20.210Z,91268.56
2023-03-31T09:13:06.113Z,91271.16
2023-03-31T09:15:52.013Z,91270.88
2023-03-31T09:18:37.971Z,91270.13
2023-03-31T09:21:23.906Z,91257.94
2023-03-31T09:24:09.711Z,91249.91
2023-03-31T09:26:55.616Z,91237.53
2023-03-31T09:29:41.492Z,91231.69
2023-03-31T09:32:27.340Z,91241.22
2023-03-31T09:35:13.302Z,91259.41
2023-03-31T09:38:00.732Z,91247.69
2023-03-31T09:40:46.697Z,91251.25
2023-03-31T09:43:32.621Z,91253.75
2023-03-31T09:46:18.965Z,91236.00
2023-03-31T09:49:05.272Z,91237.75
2023-03-31T09:51:51.225Z,91234.50
2023-03-31T09:54:37.133Z,91238.06
2023-03-31T09:57:23.105Z,91230.31
2023-03-31T10:00:09.486Z,91231.09
2023-03-31T10:02:55.674Z,91207.34
2023-03-31T10:05:41.974Z,91202.81
2023-03-31T10:08:27.864Z,91227.94
2023-03-31T10:11:13.832Z,91216.94
2023-03-31T10:13:59.783Z,91239.19
2023-03-31T10:16:45.582Z,91235.69
2023-03-31T10:19:31.478Z,91242.47
2023-03-31T10:22:17.383Z,91211.34
2023-03-31T10:25:03.267Z,91207.59
2023-03-31T10:27:49.142Z,91209.44
2023-03-31T10:30:34.962Z,91212.41
2023-03-31T10:33:23.110Z,91239.94
2023-03-31T10:36:09.763Z,91237.72
2023-03-31T10:38:55.508Z,91221.91
2023-03-31T10:41:41.472Z,91230.19
2023-03-31T10:44:27.305Z,91241.84
2023-03-31T10:47:13.094Z,91208.41
2023-03-31T10:49:59.066Z,91198.66
2023-03-31T10:52:44.970Z,91200.53
2023-03-31T10:55:30.724Z,91185.91
2023-03-31T10:58:16.749Z,91197.16
2023-03-31T11:01:02.511Z,91180.16
2023-03-31T11:03:48.615Z,91177.78
2023-03-31T11:06:35.527Z,91203.25
2023-03-31T11:09:21.475Z,91216.66
2023-03-31T11:12:07.430Z,91223.06
2023-03-31T11:14:53.362Z,91170.09
2023-03-31T11:17:39.116Z,91169.34
2023-03-31T11:20:25.061Z,91159.63
2023-03-31T11:23:10.869Z,91163.34
2023-03-31T11:25:56.873Z,91174.22
2023-03-31T11:28:42.750Z,91187.41
2023-03-31T11:31:30.084Z,91181.75
2023-03-31T11:34:16.026Z,91200.91
2023-03-31T11:37:02.065Z,91203.91
2023-03-31T11:39:47.817Z,91234.41
2023-03-31T11:42:33.761Z,91233.53
2023-03-31T11:45:19.545Z,91251.31
2023-03-31T11:48:07.575Z,91239.28
2023-03-31T11:50:53.902Z,91273.56
2023-03-31T11:53:39.863Z,91294.53
2023-03-31T11:56:25.752Z,91297.56
2023-03-31T11:59:11.570Z,91288.91
2023-03-31T12:01:57.473Z,91290.25
2023-03-31T12:04:43.356Z,91254.78
2023-03-31T12:07:29.241Z,91292.47
2023-03-31T12:10:15.030Z,91283.25
2023-03-31T12:13:03.128Z,91295.88
2023-03-31T12:15:49.292Z,91290.00
2023-03-31T12:18:35.181Z,91285.47
2023-03-31T12:21:21.112Z,91289.84
2023-03-31T12:24:08.505Z,91288.31
2023-03-31T12:26:54.788Z,91270.69
2023-03-31T12:29:40.715Z,91242.91
2023-03-31T12:32:26.631Z,91246.13
2023-03-31T12:35:12.615Z,91253.53
2023-03-31T12:37:58.546Z,91239.44
2023-03-31T12:40:44.339Z,91233.97
2023-03-31T12:43:30.098Z,91227.69
2023-03-31T12:46:15.983Z,91215.91
2023-03-31T12:49:01.907Z,91220.78
2023-03-31T12:51:47.701Z,91198.66
2023-03-31T12:54:33.488Z,91197.88
2023-03-31T12:57:19.426Z,91195.63
2023-03-31T13:00:05.661Z,91189.13
2023-03-31T13:02:53.717Z,91182.72
2023-03-31T13:05:40.071Z,91184.66
2023-03-31T13:08:25.992Z,91179.69
2023-03-31T13:11:11.895Z,91190.66
2023-03-31T13:14:00.616Z,91173.88
2023-03-31T13:16:46.972Z,91148.84
2023-03-31T13:19:33.271Z,91136.22
2023-03-31T13:22:19.655Z,91151.25
2023-03-31T13:25:05.633Z,91149.94
2023-03-31T13:27:51.572Z,91140.00
2023-03-31T13:30:37.433Z,91117.75
2023-03-31T13:33:23.219Z,91117.69
2023-03-31T13:36:09.187Z,91114.44
2023-03-31T13:38:55.446Z,91119.91
2023-03-31T13:41:41.312Z,91105.78
2023-03-31T13:44:27.309Z,91111.56
2023-03-31T13:47:13.148Z,91118.81
2023-03-31T13:49:59.044Z,91109.13
2023-03-31T13:52:45.043Z,91113.94
2023-03-31T13:55:30.785Z,91096.63
2023-03-31T13:58:30.014Z,91090.31
2023-03-31T14:01:21.102Z,91091.13
2023-03-31T14:04:07.148Z,91104.13
2023-03-31T14:06:53.076Z,91112.94
2023-03-31T14:09:39.021Z,91127.34
2023-03-31T14:12:24.818Z,91137.94
2023-03-31T14:15:10.800Z,91134.34
2023-03-31T14:17:56.749Z,91126.91
2023-03-31T14:20:42.661Z,91084.56
2023-03-31T14:23:28.565Z,91151.72
2023-03-31T14:26:14.522Z,91186.03
2023-03-31T14:29:00.579Z,91149.50
2023-03-31T14:31:46.577Z,91148.91
2023-03-31T14:34:32.400Z,91163.97
2023-03-31T14:37:18.206Z,91142.97
2023-03-31T14:40:04.113Z,91146.94
2023-03-31T14:42:50.173Z,91122.84
2023-03-31T14:45:36.152Z,91117.97
2023-03-31T14:48:22.009Z,91134.50
2023-03-31T14:51:08.103Z,91127.88
2023-03-31T14:53:54.485Z,91108.03
2023-03-31T14:56:40.267Z,91129.75
2023-03-31T14:59:26.074Z,91112.50
2023-03-31T15:02:11.983Z,91101.28
2023-03-31T15:04:57.895Z,91099.16
2023-03-31T15:07:43.862Z,91091.69
2023-03-31T15:10:29.669Z,91083.06
2023-03-31T15:13:15.606Z,91086.03
2023-03-31T15:16:01.517Z,91088.22
2023-03-31T15:18:47.320Z,91093.53
2023-03-31T15:21:35.129Z,91091.31
2023-03-31T15:24:21.180Z,91092.44
2023-03-31T15:27:07.223Z,91120.59
2023-03-31T15:29:53.202Z,91113.47
2023-03-31T15:32:39.244Z,91103.69
2023-03-31T15:35:25.308Z,91118.28
2023-03-31T15:38:11.138Z,91132.53
2023-03-31T15:40:56.941Z,91131.81
2023-03-31T15:43:42.959Z,91122.78
2023-03-31T15:46:28.933Z,91133.34
2023-03-31T15:49:15.068Z,91149.06
2023-03-31T15:52:00.954Z,91158.78
2023-03-31T15:54:46.836Z,91158.88
2023-03-31T15:57:34.853Z,91122.09
2023-03-31T16:00:20.941Z,91120.22
2023-03-31T16:03:06.897Z,91106.31
2023-03-31T16:05:54.683Z,91084.88
2023-03-31T16:08:43.026Z,91108.13
2023-03-31T16:11:30.757Z,91111.75
2023-03-31T16:14:16.532Z,91101.38
2023-03-31T16:17:02.491Z,91077.34
2023-03-31T16:19:48.343Z,91067.34
2023-03-31T16:22:34.104Z,91080.59
2023-03-31T16:25:20.125Z,91111.25
2023-03-31T16:28:05.938Z,91116.06
2023-03-31T16:30:51.819Z,91124.16
2023-03-31T16:33:37.800Z,91147.19
2023-03-31T16:36:23.640Z,91152.84
2023-03-31T16:39:09.547Z,91134.81
2023-03-31T16:41:55.460Z,91130.31
2023-03-31T16:44:42.264Z,91119.84
2023-03-31T16:47:35.128Z,91112.69
2023-03-31T16:50:22.456Z,91098.72
2023-03-31T16:53:08.321Z,91125.03
2023-03-31T16:55:54.223Z,91171.22
2023-03-31T16:58:40.098Z,91207.47
2023-03-31T17:01:26.039Z,91212.19
2023-03-31T17:04:11.916Z,91216.81
2023-03-31T17:06:57.844Z,91228.06
2023-03-31T17:09:43.726Z,91225.56
2023-03-31T17:12:29.620Z,91232.81
2023-03-31T17:15:15.366Z,91234.63
2023-03-31T17:18:01.168Z,91229.13
2023-03-31T17:20:47.149Z,91218.56
2023-03-31T17:23:32.940Z,91228.09
2023-03-31T17:26:18.795Z,91228.59
2023-03-31T17:29:04.580Z,91232.88
2023-03-31T17:31:50.523Z,91225.09
2023-03-31T17:34:36.473Z,91222.53
2023-03-31T17:37:22.131Z,91212.38
2023-03-31T17:40:08.098Z,91201.75
2023-03-31T17:42:54.076Z,91213.06
2023-03-31T17:45:39.926Z,91234.69
2023-03-31T17:48:25.869Z,91251.44
2023-03-31T17:51:11.748Z,91268.34
2023-03-31T17:53:57.642Z,91263.03
2023-03-31T17:56:43.574Z,91279.06
2023-03-31T17:59:29.314Z,91281.16
2023-03-31T18:02:15.246Z,91301.31
2023-03-31T18:05:01.278Z,91304.19
2023-03-31T18:07:47.198Z,91321.69
2023-03-31T18:10:33.318Z,91323.44
2023-03-31T18:13:19.545Z,91316.72
2023-03-31T18:16:05.465Z,91318.16
2023-03-31T18:18:51.472Z,91311.50
2023-03-31T18:21:37.260Z,91309.75
2023-03-31T18:24:23.136Z,91297.84
2023-03-31T18:27:09.111Z,91302.34
2023-03-31T18:29:54.893Z,91293.47
2023-03-31T18:32:40.811Z,91284.19
2023-03-31T18:35:26.953Z,91290.75
2023-03-31T18:38:12.886Z,91273.88
2023-03-31T18:40:58.909Z,91287.09
2023-03-31T18:43:44.718Z,91289.72
2023-03-31T18:46:30.657Z,91281.38
2023-03-31T18:49:16.624Z,91273.19
2023-03-31T18:52:02.522Z,91273.91
2023-03-31T18:54:48.401Z,91267.53
2023-03-31T18:57:34.363Z,91279.09
2023-03-31T19:00:20.215Z,91275.50
2023-03-31T19:03:06.350Z,91278.22
2023-03-31T19:05:52.216Z,91278.28
2023-03-31T19:08:40.180Z,91307.19
2023-03-31T19:11:25.905Z,91307.34
2023-03-31T19:14:11.861Z,91292.25
2023-03-31T19:16:58.003Z,91302.97
2023-03-31T19:19:44.317Z,91320.19
2023-03-31T19:22:30.069Z,91337.22
2023-03-31T19:25:16.037Z,91349.88
2023-03-31T19:28:01.896Z,91351.25
2023-03-31T19:30:47.907Z,91344.50
2023-03-31T19:33:33.773Z,91348.13
2023-03-31T19:36:19.617Z,91361.97
2023-03-31T19:39:05.519Z,91363.84
2023-03-31T19:41:51.407Z,91363.75
2023-03-31T19:44:37.189Z,91348.56
2023-03-31T19:47:23.335Z,91355.06
2023-03-31T19:50:09.073Z,91354.34
2023-03-31T19:52:55.075Z,91345.72
2023-03-31T19:55:40.945Z,91356.53
2023-03-31T19:58:26.661Z,91366.53
2023-03-31T20:01:12.663Z,91373.22
2023-03-31T20:03:58.984Z,91355.34
2023-03-31T20:06:45.294Z,91358.66
2023-03-31T20:09:32.134Z,91354.09
2023-03-31T20:12:17.841Z,91349.78
2023-03-31T20:15:03.731Z,91359.25
2023-03-31T20:17:49.850Z,91350.97
2023-03-31T20:20:35.748Z,91353.25
2023-03-31T20:23:21.721Z,91347.97
2023-03-31T20:26:07.633Z,91371.81
2023-03-31T20:28:53.572Z,91363.91
2023-03-31T20:31:39.564Z,91365.84
2023-03-31T20:34:25.717Z,91365.78
2023-03-31T20:37:11.585Z,91359.38
2023-03-31T20:39:57.536Z,91367.53
2023-03-31T20:42:43.382Z,91345.78
2023-03-31T20:45:29.364Z,91347.47
2023-03-31T20:48:15.620Z,91341.59
2023-03-31T20:51:01.526Z,91342.41
2023-03-31T20:53:47.422Z,91336.97
2023-03-31T20:56:33.269Z,91335.44
2023-03-31T20:59:19.162Z,91341.25
2023-03-31T21:02:05.513Z,91347.88
2023-03-31T21:04:51.483Z,91337.09
2023-03-31T21:07:37.853Z,91333.88
2023-03-31T21:10:23.724Z,91344.22
2023-03-31T21:13:09.583Z,91340.19
2023-03-31T21:15:55.510Z,91333.81
2023-03-31T21:18:41.271Z,91336.91
2023-03-31T21:21:27.118Z,91344.16
2023-03-31T21:24:15.042Z,91331.75
2023-03-31T21:27:00.733Z,91334.91
2023-03-31T21:29:46.647Z,91336.19
2023-03-31T21:32:34.530Z,91329.84
2023-03-31T21:35:20.349Z,91338.69
2023-03-31T21:38:06.307Z,91335.41
2023-03-31T21:40:52.228Z,91337.50
2023-03-31T21:43:38.181Z,91339.72
2023-03-31T21:46:24.259Z,91343.72
2023-03-31T21:49:10.332Z,91336.75
2023-03-31T21:51:56.190Z,91336.41
2023-03-31T21:54:42.071Z,91335.09
2023-03-31T21:57:27.953Z,91320.38
2023-03-31T22:00:13.817Z,91323.75
2023-03-31T22:03:16.381Z,91342.22
2023-03-31T22:06:05.588Z,91334.75
2023-03-31T22:08:51.475Z,91339.19
2023-03-31T22:11:37.325Z,91337.50
2023-03-31T22:14:23.035Z,91344.59
2023-03-31T22:17:08.933Z,91347.22
2023-03-31T22:19:54.657Z,91352.69
2023-03-31T22:22:40.692Z,91350.91
2023-03-31T22:25:26.726Z,91359.09
2023-03-31T22:28:12.463Z,91349.13
2023-03-31T22:30:58.355Z,91348.72
2023-03-31T22:33:44.207Z,91350.25
2023-03-31T22:36:30.100Z,91342.47
2023-03-31T22:39:15.987Z,91326.78
2023-03-31T22:42:01.710Z,91338.06
2023-03-31T22:44:47.612Z,91345.09
2023-03-31T22:47:33.730Z,91350.78
2023-03-31T22:50:19.554Z,91354.25
2023-03-31T22:53:05.479Z,91360.03
2023-03-31T22:55:54.351Z,91347.75
2023-03-31T22:58:40.593Z,91353.34
2023-03-31T23:01:26.415Z,91360.22
2023-03-31T23:04:12.490Z,91362.16
2023-03-31T23:06:58.427Z,91365.69
2023-03-31T23:09:44.252Z,91356.44
2023-03-31T23:12:30.193Z,91351.47
2023-03-31T23:15:18.171Z,91371.47
2023-03-31T23:18:04.181Z,91373.38
2023-03-31T23:20:49.988Z,91360.97
2023-03-31T23:23:35.741Z,91367.53
2023-03-31T23:26:21.587Z,91376.03
2023-03-31T23:29:07.447Z,91374.97
2023-03-31T23:31:53.343Z,91372.47
2023-03-31T23:34:39.369Z,91381.44
2023-03-31T23:37:25.272Z,91387.72
2023-03-31T23:40:11.187Z,91389.38
2023-03-31T23:42:56.997Z,91385.44
2023-03-31T23:45:42.982Z,91385.34
2023-03-31T23:48:28.918Z,91393.94
2023-03-31T23:51:14.765Z,91395.38
2023-03-31T23:54:00.512Z,91393.78
2023-03-31T23:56:46.337Z,91392.31
2023-03-31T23:59:32.294Z,91392.38
